Time;durP1;ratioP1;P1;durP2;ratioP2;P2;SDS_P1;SDS_P2;PMS_P1;PMS_P2;Temp;Humidity;BMP_temperature;BMP_pressure;BME280_temperature;BME280_humidity;BME280_pressure;Samples;Min_cycle;Max_cycle;Signal;HPM_P1;HPM_P2
2021/09/11 00:01:00;;;;;;;;;;;;;;;-142.75;99.74;76495.50;5052503;28;19927;-79
2021/09/11 00:03:25;;;;;;;;;;;;;;;-142.75;99.98;76503.38;5077935;28;19913;-78
2021/09/11 00:05:50;;;;;;;;;;;;;;;-142.75;99.87;76497.47;5045055;28;19952;-79
2021/09/11 00:08:16;;;;;;;;;;;;;;;-142.75;100.00;76503.38;5033166;28;20392;-80
2021/09/11 00:10:41;;;;;;;;;;;;;;;-142.75;100.00;76509.28;5078548;28;19913;-79
2021/09/11 00:13:06;;;;;;;;;;;;;;;-142.75;100.00;76513.22;5062607;28;19936;-79
2021/09/11 00:15:31;;;;;;;;;;;;;;;-142.75;99.99;76499.44;5038202;28;19916;-79
2021/09/11 00:18:01;;;;;;;;;;;;;;;-142.75;99.87;76495.50;5087042;28;19981;-80
2021/09/11 00:20:27;;;;;;;;;;;;;;;-142.75;99.82;76503.38;5062283;28;20279;-79
2021/09/11 00:22:52;;;;;;;;;;;;;;;-142.75;100.00;76505.34;5058788;28;19921;-79
2021/09/11 00:25:17;;;;;;;;;;;;;;;-142.75;100.00;76521.09;5060557;28;19920;-79
2021/09/11 00:27:42;;;;;;;;;;;;;;;-142.75;100.00;76519.13;5040599;28;19968;-81
2021/09/11 00:30:07;;;;;;;;;;;;;;;-142.75;100.00;76507.31;5047720;28;19912;-79
2021/09/11 00:32:34;;;;;;;;;;;;;;;-142.75;100.00;76507.31;5057057;28;19913;-78
2021/09/11 00:35:00;;;;;;;;;;;;;;;-142.75;100.00;76509.28;5038779;28;19917;-80
2021/09/11 00:37:26;;;;;;;;;;;;;;;-142.75;100.00;76507.31;5037877;28;19913;-78
2021/09/11 00:39:51;;;;;;;;;;;;;;;-142.75;100.00;76497.47;5071252;28;19913;-79
2021/09/11 00:42:16;;;;;;;;;;;;;;;-142.75;100.00;76495.50;5071529;28;19912;-81
2021/09/11 00:44:41;;;;;;;;;;;;;;;-142.75;100.00;76491.56;5076628;28;20000;-80
2021/09/11 00:47:06;;;;;;;;;;;;;;;-142.75;100.00;76483.69;5070898;28;19913;-80
2021/09/11 00:49:32;;;;;;;;;;;;;;;-142.75;100.00;76479.75;5040942;28;19969;-81
2021/09/11 00:51:57;;;;;;;;;;;;;;;-142.75;100.00;76469.91;5069072;28;19938;-79
2021/09/11 00:54:22;;;;;;;;;;;;;;;-142.75;100.00;76475.81;5061775;28;19917;-79
2021/09/11 00:56:49;;;;;;;;;;;;;;;-142.75;100.00;76460.06;5071501;28;20301;-79
2021/09/11 00:59:14;;;;;;;;;;;;;;;-142.75;100.00;76467.94;5058168;28;20605;-80
2021/09/11 01:01:39;;;;;;;;;;;;;;;-142.75;99.44;76462.03;5056933;28;19959;-81
2021/09/11 01:04:04;;;;;;;;;;;;;;;-142.75;99.65;76469.91;5065418;28;19921;-81
2021/09/11 01:06:29;;;;;;;;;;;;;;;-142.75;99.42;76479.75;5039953;28;19919;-78
2021/09/11 01:08:55;;;;;;;;;;;;;;;-142.75;99.85;76479.75;5039359;28;20381;-79
2021/09/11 01:11:20;;;;;;;;;;;;;;;-142.75;99.56;76475.81;5081573;28;20335;-81
2021/09/11 01:13:45;;;;;;;;;;;;;;;-142.75;98.98;76475.81;5070425;28;20296;-78
2021/09/11 01:16:11;;;;;;;;;;;;;;;-142.75;99.08;76483.69;5037209;28;19912;-78
2021/09/11 01:18:36;;;;;;;;;;;;;;;-142.75;99.84;76499.44;5046783;28;20301;-81
2021/09/11 01:21:02;;;;;;;;;;;;;;;-142.75;99.85;76491.56;5068562;28;19913;-79
2021/09/11 01:23:27;;;;;;;;;;;;;;;-142.75;99.72;76487.63;5055949;28;20494;-82
2021/09/11 01:25:53;;;;;;;;;;;;;;;-142.75;100.00;76481.72;5058399;28;19916;-80
2021/09/11 01:28:18;;;;;;;;;;;;;;;-142.75;100.00;76499.44;5042285;28;19913;-80
2021/09/11 01:30:44;;;;;;;;;;;;;;;-142.75;100.00;76489.59;5056718;28;20390;-80
2021/09/11 01:33:09;;;;;;;;;;;;;;;-142.75;100.00;76483.69;5041326;28;19917;-80
2021/09/11 01:35:34;;;;;;;;;;;;;;;-142.75;100.00;76489.59;5057952;28;20450;-80
2021/09/11 01:38:00;;;;;;;;;;;;;;;-142.75;100.00;76483.69;5057746;28;20332;-79
2021/09/11 01:40:25;;;;;;;;;;;;;;;-142.75;100.00;76483.69;5048917;28;19961;-80
2021/09/11 01:42:51;;;;;;;;;;;;;;;-142.75;100.00;76479.75;5064434;28;19913;-78
2021/09/11 01:45:17;;;;;;;;;;;;;;;-142.75;100.00;76479.75;5055633;28;19920;-79
2021/09/11 01:47:43;;;;;;;;;;;;;;;-142.75;100.00;76471.88;5037506;28;19954;-78
2021/09/11 01:50:09;;;;;;;;;;;;;;;-142.75;100.00;76473.84;5063291;28;19963;-78
2021/09/11 01:52:35;;;;;;;;;;;;;;;-142.75;100.00;76475.81;5051663;28;19956;-79
2021/09/11 01:55:00;;;;;;;;;;;;;;;-142.75;100.00;76471.88;5040077;28;19963;-81
2021/09/11 01:57:25;;;;;;;;;;;;;;;-142.75;100.00;76479.75;5062995;28;19919;-78
2021/09/11 01:59:51;;;;;;;;;;;;;;;-142.75;100.00;76469.91;5039276;28;19913;-78
2021/09/11 02:02:16;;;;;;;;;;;;;;;-142.75;100.00;76475.81;5041123;28;19916;-80
2021/09/11 02:04:41;;;;;;;;;;;;;;;-142.75;100.00;76473.84;5038182;28;19913;-78
2021/09/11 02:07:07;;;;;;;;;;;;;;;-142.75;100.00;76485.66;5034574;22;19922;-77
2021/09/11 02:09:33;;;;;;;;;;;;;;;-142.75;100.00;76483.69;5094243;28;20283;-77
2021/09/11 02:11:58;;;;;;;;;;;;;;;-142.75;100.00;76485.66;4996680;28;20356;-78
2021/09/11 02:14:23;;;;;;;;;;;;;;;-142.75;100.00;76483.69;5076722;28;19917;-77
2021/09/11 02:16:48;;;;;;;;;;;;;;;-142.75;100.00;76497.47;4996428;28;19963;-78
2021/09/11 02:19:14;;;;;;;;;;;;;;;-142.75;100.00;76501.41;4998439;28;19913;-77
2021/09/11 02:21:39;;;;;;;;;;;;;;;-142.75;100.00;76501.41;4990395;28;20196;-77
2021/09/11 02:24:04;;;;;;;;;;;;;;;-142.75;100.00;76491.56;4997476;28;19998;-77
2021/09/11 02:26:30;;;;;;;;;;;;;;;-142.75;100.00;76487.63;5074491;28;19922;-78
2021/09/11 02:28:55;;;;;;;;;;;;;;;-142.75;100.00;76489.59;5075624;28;19914;-76
2021/09/11 02:31:20;;;;;;;;;;;;;;;-142.75;100.00;76491.56;5075618;28;20340;-77
2021/09/11 02:33:47;;;;;;;;;;;;;;;-142.75;100.00;76487.63;5004530;28;19979;-77
2021/09/11 02:36:12;;;;;;;;;;;;;;;-142.75;100.00;76481.72;4998409;28;19965;-76
2021/09/11 02:38:37;;;;;;;;;;;;;;;-142.75;100.00;76487.63;5000215;28;20019;-77
2021/09/11 02:41:02;;;;;;;;;;;;;;;-142.75;100.00;76495.50;5004196;28;19914;-77
2021/09/11 02:43:28;;;;;;;;;;;;;;;-142.75;100.00;76487.63;4990496;28;20375;-77
2021/09/11 02:45:53;;;;;;;;;;;;;;;-142.75;100.00;76489.59;4997474;28;19920;-77
2021/09/11 02:48:18;;;;;;;;;;;;;;;-142.75;100.00;76487.63;5059181;28;19914;-77
2021/09/11 02:50:44;;;;;;;;;;;;;;;-142.75;100.00;76487.63;4991908;28;20367;-77
2021/09/11 02:53:09;;;;;;;;;;;;;;;-142.75;100.00;76491.56;4998391;28;20012;-77
2021/09/11 02:55:35;;;;;;;;;;;;;;;-142.75;100.00;76485.66;5009814;28;20324;-77
2021/09/11 02:58:00;;;;;;;;;;;;;;;-142.75;100.00;76475.81;5003161;28;20340;-77
2021/09/11 03:00:25;;;;;;;;;;;;;;;-142.75;100.00;76481.72;5013588;28;20003;-77
2021/09/11 03:02:50;;;;;;;;;;;;;;;-142.75;100.00;76483.69;5007414;28;20298;-77
2021/09/11 03:05:15;;;;;;;;;;;;;;;-142.75;100.00;76475.81;5002930;28;19913;-77
2021/09/11 03:07:41;;;;;;;;;;;;;;;-142.75;100.00;76483.69;5080736;28;19917;-77
2021/09/11 03:10:06;;;;;;;;;;;;;;;-142.75;100.00;76483.69;5000125;28;19967;-77
2021/09/11 03:12:31;;;;;;;;;;;;;;;-142.75;100.00;76491.56;5070065;28;19960;-77
2021/09/11 03:14:56;;;;;;;;;;;;;;;-142.75;100.00;76505.34;4997404;28;20008;-77
2021/09/11 03:17:22;;;;;;;;;;;;;;;-142.75;100.00;76495.50;4997572;28;19920;-77
2021/09/11 03:19:47;;;;;;;;;;;;;;;-142.75;100.00;76489.59;4993626;28;19913;-76
2021/09/11 03:22:12;;;;;;;;;;;;;;;-142.75;100.00;76499.44;5007291;28;19914;-76
2021/09/11 03:24:37;;;;;;;;;;;;;;;-142.75;100.00;76489.59;4993299;28;19921;-77
2021/09/11 03:27:03;;;;;;;;;;;;;;;-142.75;100.00;76495.50;5070468;28;20303;-77
2021/09/11 03:29:28;;;;;;;;;;;;;;;-142.75;100.00;76487.63;5012922;28;19992;-77
2021/09/11 03:31:53;;;;;;;;;;;;;;;-142.75;100.00;76499.44;5080285;28;19917;-77
2021/09/11 03:34:18;;;;;;;;;;;;;;;-142.75;100.00;76495.50;5012012;28;19929;-77
2021/09/11 03:36:43;;;;;;;;;;;;;;;-142.75;100.00;76487.63;5013543;28;19913;-76
2021/09/11 03:39:08;;;;;;;;;;;;;;;-142.75;100.00;76503.38;5012624;28;19919;-77
2021/09/11 03:41:34;;;;;;;;;;;;;;;-142.75;100.00;76493.53;5066253;28;19912;-77
2021/09/11 03:43:59;;;;;;;;;;;;;;;-142.75;100.00;76503.38;5008601;28;19922;-78
2021/09/11 03:46:24;;;;;;;;;;;;;;;-142.75;100.00;76507.31;5069053;28;19920;-77
2021/09/11 03:48:49;;;;;;;;;;;;;;;-142.75;100.00;76505.34;5068787;28;19923;-78
2021/09/11 03:51:14;;;;;;;;;;;;;;;-142.75;100.00;76507.31;4992639;28;19920;-77
2021/09/11 03:53:40;;;;;;;;;;;;;;;-142.75;100.00;76507.31;5074206;28;20396;-77
2021/09/11 03:56:05;;;;;;;;;;;;;;;-142.75;100.00;76511.25;5079666;28;19913;-76
2021/09/11 03:58:30;;;;;;;;;;;;;;;-142.75;100.00;76511.25;5005131;28;19936;-77
2021/09/11 04:00:55;;;;;;;;;;;;;;;-142.75;100.00;76497.47;5080354;28;19960;-76
2021/09/11 04:03:20;;;;;;;;;;;;;;;-142.75;100.00;76495.50;5000916;28;20306;-77
2021/09/11 04:05:46;;;;;;;;;;;;;;;-142.75;100.00;76511.25;5000179;28;20260;-77
2021/09/11 04:08:11;;;;;;;;;;;;;;;-142.75;100.00;76511.25;4994760;28;19914;-77
2021/09/11 04:10:36;;;;;;;;;;;;;;;-142.75;100.00;76507.31;5064391;28;19979;-77
2021/09/11 04:13:01;;;;;;;;;;;;;;;-142.75;100.00;76505.34;5002304;28;19914;-77
2021/09/11 04:15:26;;;;;;;;;;;;;;;-142.75;100.00;76513.22;5060814;28;19913;-76
2021/09/11 04:17:51;;;;;;;;;;;;;;;-142.75;100.00;76515.19;4996232;28;20282;-77
2021/09/11 04:20:17;;;;;;;;;;;;;;;-142.75;100.00;76511.25;5011142;28;19913;-77
2021/09/11 04:22:42;;;;;;;;;;;;;;;-142.75;100.00;76515.19;5069868;28;19914;-77
2021/09/11 04:25:07;;;;;;;;;;;;;;;-142.75;100.00;76523.06;5001526;28;19925;-77
2021/09/11 04:27:33;;;;;;;;;;;;;;;-142.75;100.00;76521.09;5012166;28;19924;-78
2021/09/11 04:29:58;;;;;;;;;;;;;;;-142.75;100.00;76527.00;5012639;28;20386;-77
2021/09/11 04:32:23;;;;;;;;;;;;;;;-142.75;100.00;76519.13;5004389;28;20012;-77
2021/09/11 04:34:49;;;;;;;;;;;;;;;-142.75;100.00;76521.09;5061264;28;19932;-77
2021/09/11 04:37:14;;;;;;;;;;;;;;;-142.75;100.00;76527.00;5065052;28;20271;-77
2021/09/11 04:39:39;;;;;;;;;;;;;;;-142.75;100.00;76527.00;4992998;28;19997;-76
2021/09/11 04:42:04;;;;;;;;;;;;;;;-142.75;100.00;76515.19;4994633;28;20366;-77
2021/09/11 04:44:29;;;;;;;;;;;;;;;-142.75;100.00;76523.06;5063835;28;19932;-78
2021/09/11 04:46:55;;;;;;;;;;;;;;;-142.75;100.00;76511.25;4995831;28;20012;-77
2021/09/11 04:49:20;;;;;;;;;;;;;;;-142.75;100.00;76523.06;4995322;28;19917;-76
2021/09/11 04:51:45;;;;;;;;;;;;;;;-142.75;100.00;76523.06;5007088;28;20008;-78
2021/09/11 04:54:10;;;;;;;;;;;;;;;-142.75;100.00;76513.22;5067580;28;20021;-77
2021/09/11 04:56:36;;;;;;;;;;;;;;;-142.75;100.00;76519.13;5001098;28;20398;-77
2021/09/11 04:59:01;;;;;;;;;;;;;;;-142.75;100.00;76523.06;5078744;28;19913;-76
2021/09/11 05:01:26;;;;;;;;;;;;;;;-142.75;100.00;76530.91;4996505;28;20528;-77
2021/09/11 05:03:51;;;;;;;;;;;;;;;-142.75;100.00;76527.00;5064939;28;19927;-78
2021/09/11 05:06:16;;;;;;;;;;;;;;;-142.75;100.00;76530.91;5003341;28;19913;-77
2021/09/11 05:08:42;;;;;;;;;;;;;;;-142.75;100.00;76530.91;5071492;28;20325;-77
2021/09/11 05:11:07;;;;;;;;;;;;;;;-142.75;100.00;76538.78;5059336;28;19913;-77
2021/09/11 05:13:33;;;;;;;;;;;;;;;-142.75;100.00;76534.84;5005228;28;19978;-77
2021/09/11 05:15:58;;;;;;;;;;;;;;;-142.75;100.00;76542.72;5078807;28;19958;-77
2021/09/11 05:18:23;;;;;;;;;;;;;;;-142.75;100.00;76536.84;5008390;28;19913;-77
2021/09/11 05:20:48;;;;;;;;;;;;;;;-142.75;100.00;76534.84;4992395;28;20004;-77
2021/09/11 05:23:13;;;;;;;;;;;;;;;-142.75;100.00;76530.91;4998664;28;19913;-78
2021/09/11 05:25:39;;;;;;;;;;;;;;;-142.75;100.00;76530.91;5068975;28;19914;-77
2021/09/11 05:28:04;;;;;;;;;;;;;;;-142.75;100.00;76527.00;5003076;28;19913;-76
2021/09/11 05:30:29;;;;;;;;;;;;;;;-142.75;100.00;76527.00;5011471;28;20319;-77
2021/09/11 05:32:54;;;;;;;;;;;;;;;-142.75;100.00;76521.09;5012234;28;19920;-77
2021/09/11 05:35:19;;;;;;;;;;;;;;;-142.75;100.00;76519.13;5002684;28;19918;-76
2021/09/11 05:37:45;;;;;;;;;;;;;;;-142.75;100.00;76528.97;5059429;28;19918;-77
2021/09/11 05:40:10;;;;;;;;;;;;;;;-142.75;100.00;76527.00;5073612;28;19913;-76
2021/09/11 05:42:36;;;;;;;;;;;;;;;-142.75;100.00;76519.13;5001807;28;19914;-77
2021/09/11 05:45:03;;;;;;;;;;;;;;;-142.75;100.00;76513.22;4996821;28;19913;-77
2021/09/11 05:47:28;;;;;;;;;;;;;;;-142.75;100.00;76509.28;5010363;28;19914;-78
2021/09/11 05:49:53;;;;;;;;;;;;;;;-142.75;100.00;76515.19;4993125;28;20386;-76
2021/09/11 05:52:18;;;;;;;;;;;;;;;-142.75;100.00;76519.13;5060255;28;19921;-77
2021/09/11 05:54:43;;;;;;;;;;;;;;;-142.75;100.00;76523.06;4996010;28;19953;-77
2021/09/11 05:57:08;;;;;;;;;;;;;;;-142.75;100.00;76523.06;4992392;28;19914;-76
2021/09/11 05:59:34;;;;;;;;;;;;;;;-142.75;100.00;76525.03;5002195;28;19981;-77
2021/09/11 06:01:59;;;;;;;;;;;;;;;-142.75;100.00;76523.06;5078290;28;19960;-78
2021/09/11 06:04:24;;;;;;;;;;;;;;;-142.75;100.00;76538.78;4996390;28;19936;-77
2021/09/11 06:06:49;;;;;;;;;;;;;;;-142.75;100.00;76532.88;5058036;28;19921;-77
2021/09/11 06:09:14;;;;;;;;;;;;;;;-142.75;100.00;76530.91;5063552;28;19912;-77
2021/09/11 06:11:39;;;;;;;;;;;;;;;-142.75;100.00;76534.84;4993350;28;19921;-77
2021/09/11 06:14:05;;;;;;;;;;;;;;;-142.75;100.00;76530.91;5064492;28;20409;-77
2021/09/11 06:16:30;;;;;;;;;;;;;;;-142.75;100.00;76546.66;4993130;28;20016;-77
2021/09/11 06:18:55;;;;;;;;;;;;;;;-142.75;100.00;76542.72;4992995;28;19920;-78
2021/09/11 06:21:20;;;;;;;;;;;;;;;-142.75;100.00;76540.75;4991060;28;19928;-77
2021/09/11 06:23:46;;;;;;;;;;;;;;;-142.75;100.00;76532.88;4995461;28;19936;-78
2021/09/11 06:26:11;;;;;;;;;;;;;;;-142.75;100.00;76544.69;5006123;28;19913;-76
2021/09/11 06:28:36;;;;;;;;;;;;;;;-142.75;100.00;76530.91;5001215;28;20018;-76
2021/09/11 06:31:01;;;;;;;;;;;;;;;-142.75;100.00;76513.22;4993205;28;19917;-77
2021/09/11 06:33:27;;;;;;;;;;;;;;;-142.75;100.00;76540.75;4993947;28;19917;-77
2021/09/11 06:35:52;;;;;;;;;;;;;;;-142.75;100.00;76523.06;4999465;28;20267;-77
2021/09/11 06:38:17;;;;;;;;;;;;;;;-142.75;100.00;76530.91;5067400;28;19912;-77
2021/09/11 06:40:42;;;;;;;;;;;;;;;-142.75;100.00;76523.06;4995622;28;19914;-77
2021/09/11 06:43:07;;;;;;;;;;;;;;;-142.75;100.00;76521.09;5076763;28;20011;-77
2021/09/11 06:45:33;;;;;;;;;;;;;;;-142.75;100.00;76527.00;5002222;28;19914;-76
2021/09/11 06:47:58;;;;;;;;;;;;;;;-142.75;100.00;76523.06;5066493;28;20001;-76
2021/09/11 06:50:23;;;;;;;;;;;;;;;-142.75;100.00;76517.16;4995540;28;19914;-77
2021/09/11 06:52:48;;;;;;;;;;;;;;;-142.75;100.00;76523.06;4994611;28;20295;-77
2021/09/11 06:55:13;;;;;;;;;;;;;;;-142.75;100.00;76523.06;4992458;28;19917;-77
2021/09/11 06:57:39;;;;;;;;;;;;;;;-142.75;100.00;76521.09;4992359;28;19914;-76
2021/09/11 07:00:05;;;;;;;;;;;;;;;-142.75;100.00;76525.03;5075014;28;19924;-77
2021/09/11 07:02:30;;;;;;;;;;;;;;;-142.75;100.00;76523.06;5006949;28;19921;-77
2021/09/11 07:04:55;;;;;;;;;;;;;;;-142.75;100.00;76515.19;4998084;28;20004;-78
2021/09/11 07:07:20;;;;;;;;;;;;;;;-142.75;100.00;76497.47;4992513;28;19917;-76
2021/09/11 07:09:46;;;;;;;;;;;;;;;-142.75;100.00;76503.38;5066780;28;19941;-77
2021/09/11 07:12:11;;;;;;;;;;;;;;;-142.75;100.00;76495.50;5002151;28;19982;-77
2021/09/11 07:14:36;;;;;;;;;;;;;;;-142.75;100.00;76491.56;5011050;28;19918;-76
2021/09/11 07:17:01;;;;;;;;;;;;;;;-142.75;100.00;76473.84;5078182;28;19914;-77
2021/09/11 07:19:28;;;;;;;;;;;;;;;-142.75;100.00;76456.13;5006187;28;19920;-76
2021/09/11 07:21:54;;;;;;;;;;;;;;;-142.75;100.00;76464.00;5076839;28;19917;-76
2021/09/11 07:24:19;;;;;;;;;;;;;;;-142.75;100.00;76460.06;4991046;28;20300;-76
2021/09/11 07:26:44;;;;;;;;;;;;;;;-142.75;100.00;76460.06;5001451;28;19914;-76
2021/09/11 07:29:09;;;;;;;;;;;;;;;-142.75;100.00;76475.81;5010809;28;19914;-76
2021/09/11 07:31:34;;;;;;;;;;;;;;;-142.75;100.00;76471.88;5078152;28;19920;-76
2021/09/11 07:34:00;;;;;;;;;;;;;;;-142.75;100.00;76465.97;5009747;28;19917;-75
2021/09/11 07:36:25;;;;;;;;;;;;;;;-142.75;100.00;76462.03;5009839;28;20328;-76
2021/09/11 07:38:50;;;;;;;;;;;;;;;-142.75;100.00;76460.06;5009595;28;19929;-76
2021/09/11 07:41:15;;;;;;;;;;;;;;;-142.75;100.00;76460.06;4993436;28;19910;-76
2021/09/11 07:43:41;;;;;;;;;;;;;;;-142.75;100.00;76469.91;5057932;28;19925;-76
2021/09/11 07:46:06;;;;;;;;;;;;;;;-142.75;100.00;76456.13;5077764;28;19921;-75
2021/09/11 07:48:31;;;;;;;;;;;;;;;-142.75;100.00;76450.22;5077829;28;19939;-75
2021/09/11 07:50:56;;;;;;;;;;;;;;;-142.75;100.00;76452.19;5009290;28;19913;-77
2021/09/11 07:53:22;;;;;;;;;;;;;;;-142.75;100.00;76440.38;4994382;28;19917;-76
2021/09/11 07:55:47;;;;;;;;;;;;;;;-142.75;100.00;76432.50;5062010;28;19961;-77
2021/09/11 07:58:12;;;;;;;;;;;;;;;-142.75;100.00;76438.41;5061196;28;19967;-76
2021/09/11 08:00:37;;;;;;;;;;;;;;;-142.75;100.00;76434.47;4990216;28;19914;-77
2021/09/11 08:03:03;;;;;;;;;;;;;;;-142.75;100.00;76416.75;5057357;28;19913;-75
2021/09/11 08:05:28;;;;;;;;;;;;;;;-142.75;100.00;76412.81;4988889;28;19918;-76
2021/09/11 08:07:53;;;;;;;;;;;;;;;-142.75;100.00;76424.63;4995614;23;19947;-79
2021/09/11 08:10:19;;;;;;;;;;;;;;;-142.75;100.00;76416.75;5036230;28;19918;-78
2021/09/11 08:12:46;;;;;;;;;;;;;;;-142.75;100.00;76412.81;5038050;28;19929;-78
2021/09/11 08:15:12;;;;;;;;;;;;;;;-142.75;100.00;76412.81;4971585;28;19918;-79
2021/09/11 08:17:37;;;;;;;;;;;;;;;-142.75;100.00;76404.94;5044310;28;20272;-79
2021/09/11 08:20:04;;;;;;;;;;;;;;;-142.75;100.00;76424.63;4981885;28;20363;-77
2021/09/11 08:22:29;;;;;;;;;;;;;;;-142.75;100.00;76416.75;4981935;28;19940;-79
2021/09/11 08:24:56;;;;;;;;;;;;;;;-142.75;100.00;76416.75;5055315;28;19914;-78
2021/09/11 08:27:21;;;;;;;;;;;;;;;-142.75;100.00;76428.56;5050952;28;19997;-78
2021/09/11 08:29:46;;;;;;;;;;;;;;;-142.75;100.00;76420.69;5050489;28;19961;-77
2021/09/11 08:32:12;;;;;;;;;;;;;;;-142.75;100.00;76424.63;4983796;28;20260;-79
2021/09/11 08:34:37;;;;;;;;;;;;;;;-142.75;100.00;76406.91;5041902;28;19964;-78
2021/09/11 08:37:02;;;;;;;;;;;;;;;-142.75;100.00;76393.13;5046690;28;19965;-77
2021/09/11 08:39:27;;;;;;;;;;;;;;;-142.75;100.00;76401.00;5049752;28;19921;-79
2021/09/11 08:41:53;;;;;;;;;;;;;;;-142.75;100.00;76381.31;4981815;28;20371;-79
2021/09/11 08:44:19;;;;;;;;;;;;;;;-142.75;98.85;76377.38;5048445;28;19970;-79
2021/09/11 08:46:46;;;;;;;;;;;;;;;-142.75;98.33;76361.63;5049742;28;19917;-77
2021/09/11 08:49:11;;;;;;;;;;;;;;;-142.75;98.21;76345.91;4976562;28;20662;-78
2021/09/11 08:51:36;;;;;;;;;;;;;;;-142.75;97.21;76326.22;4981521;28;20034;-78
2021/09/11 08:54:01;;;;;;;;;;;;;;;-142.75;94.83;76340.00;5042346;28;19945;-79
2021/09/11 08:56:27;;;;;;;;;;;;;;;-142.75;93.96;76324.25;4981215;28;19913;-79
2021/09/11 08:59:08;;;;;;;;;;;;;;;-142.75;92.98;76341.97;4983909;28;19920;-79
2021/09/11 09:01:33;;;;;;;;;;;;;;;-142.75;93.88;76308.50;5050995;28;19917;-78
2021/09/11 09:03:58;;;;;;;;;;;;;;;-142.75;93.22;76298.66;5053331;28;20348;-79
2021/09/11 09:06:28;;;;;;;;;;;;;;;-142.75;93.22;76284.88;5045789;28;19921;-79
2021/09/11 09:08:55;;;;;;;;;;;;;;;-142.75;93.25;76294.72;4984908;28;19913;-78
2021/09/11 09:11:30;;;;;;;;;;;;;;;-142.75;94.60;76308.50;5048050;28;19914;-79
2021/09/11 09:13:57;;;;;;;;;;;;;;;-142.75;94.53;76322.28;5044645;28;19918;-80
2021/09/11 09:16:23;;;;;;;;;;;;;;;-142.75;95.50;76308.50;5047258;28;19957;-77
2021/09/11 09:18:48;;;;;;;;;;;;;;;-142.75;95.52;76294.72;5046919;28;20592;-78
2021/09/11 09:21:16;;;;;;;;;;;;;;;-142.75;94.84;76255.34;4981169;28;19956;-78
2021/09/11 09:23:45;;;;;;;;;;;;;;;-142.75;93.28;76223.84;4985880;28;19914;-80
2021/09/11 09:26:10;;;;;;;;;;;;;;;-142.75;91.93;76200.25;4979725;28;19913;-80
2021/09/11 09:28:36;;;;;;;;;;;;;;;-142.75;89.22;76204.16;5039850;28;19914;-80
2021/09/11 09:31:01;;;;;;;;;;;;;;;-142.75;88.62;76219.91;5054023;28;19917;-80
2021/09/11 09:33:29;;;;;;;;;;;;;;;-142.75;89.80;76206.13;5046495;28;19985;-78
2021/09/11 09:35:58;;;;;;;;;;;;;;;-142.75;90.32;76200.25;5039757;28;19921;-80
2021/09/11 09:38:23;;;;;;;;;;;;;;;-142.75;90.62;76253.38;5046589;28;19937;-78
2021/09/11 09:40:50;;;;;;;;;;;;;;;-142.75;91.07;76225.81;5050866;28;19918;-80
2021/09/11 09:43:42;;;;;;;;;;;;;;;-142.75;91.62;76229.75;5051831;28;20393;-80
2021/09/11 09:46:18;;;;;;;;;;;;;;;-142.75;91.04;76192.38;4975275;28;19914;-79
2021/09/11 09:48:44;;;;;;;;;;;;;;;-142.75;89.23;76168.75;5040560;28;19922;-78
2021/09/11 09:51:13;;;;;;;;;;;;;;;-142.75;89.10;76141.19;4980910;28;19924;-80
2021/09/11 09:53:40;;;;;;;;;;;;;;;-142.75;86.96;76145.13;5042564;28;19930;-80
2021/09/11 09:56:06;;;;;;;;;;;;;;;-142.75;87.04;76137.25;5044766;28;20376;-79
2021/09/11 09:58:32;;;;;;;;;;;;;;;-142.75;88.13;76137.25;4983926;28;19921;-79
2021/09/11 10:00:57;;;;;;;;;;;;;;;-142.75;87.95;76158.91;4989305;28;19925;-80
2021/09/11 10:03:22;;;;;;;;;;;;;;;-142.75;87.61;76160.88;4975950;28;19953;-79
2021/09/11 10:05:49;;;;;;;;;;;;;;;-142.75;88.06;76149.06;5050942;28;19960;-78
2021/09/11 10:08:16;;;;;;;;;;;;;;;-142.75;86.74;76129.38;5040869;28;19960;-79
2021/09/11 10:10:43;;;;;;;;;;;;;;;-142.75;86.65;76119.53;5042077;28;20387;-79
2021/09/11 10:13:15;;;;;;;;;;;;;;;-142.75;86.07;76080.16;4984467;28;20395;-80
2021/09/11 10:15:52;;;;;;;;;;;;;;;-142.75;85.20;76038.84;5046959;28;20283;-80
2021/09/11 10:18:32;;;;;;;;;;;;;;;-142.75;82.89;76013.25;5046449;28;20416;-79
2021/09/11 10:21:16;;;;;;;;;;;;;;;-142.75;81.63;75999.47;5052184;28;19914;-80
2021/09/11 10:23:42;;;;;;;;;;;;;;;-142.75;78.96;75997.50;5040334;28;19921;-79
2021/09/11 10:26:27;;;;;;;;;;;;;;;-142.75;79.59;75997.50;4984201;28;20382;-79
2021/09/11 10:28:53;;;;;;;;;;;;;;;-142.75;77.80;75983.72;5047426;28;19922;-79
2021/09/11 10:31:18;;;;;;;;;;;;;;;-142.75;78.73;75995.53;4978032;28;19918;-78
2021/09/11 10:33:43;;;;;;;;;;;;;;;-142.75;79.95;75979.78;4978304;28;19957;-80
2021/09/11 10:36:10;;;;;;;;;;;;;;;-142.75;80.28;76027.03;5048079;28;19953;-78
2021/09/11 10:38:42;;;;;;;;;;;;;;;-142.75;79.76;76058.53;5040433;28;19949;-79
2021/09/11 10:41:10;;;;;;;;;;;;;;;-142.75;80.63;76038.84;4982707;28;19914;-78
2021/09/11 10:43:36;;;;;;;;;;;;;;;-142.75;82.53;75983.72;5043619;28;19914;-79
2021/09/11 10:46:08;;;;;;;;;;;;;;;-142.75;79.16;75912.88;4981174;28;19914;-81
2021/09/11 10:48:37;;;;;;;;;;;;;;;-142.75;76.55;75952.25;4977788;28;19920;-80
2021/09/11 10:51:21;;;;;;;;;;;;;;;-142.75;77.09;75942.41;4985676;28;19914;-79
2021/09/11 10:54:04;;;;;;;;;;;;;;;-142.75;75.86;75975.84;5045283;28;19922;-81
2021/09/11 10:56:31;;;;;;;;;;;;;;;-142.75;78.59;76019.16;4984303;28;19917;-78
2021/09/11 10:59:18;;;;;;;;;;;;;;;-142.75;81.82;76056.56;5045441;28;19914;-78
2021/09/11 11:01:56;;;;;;;;;;;;;;;-142.75;84.02;76115.59;5047499;28;20402;-77
2021/09/11 11:04:36;;;;;;;;;;;;;;;-142.75;86.13;76117.56;4980129;28;19979;-82
2021/09/11 11:07:03;;;;;;;;;;;;;;;-142.75;88.73;76145.13;5046597;28;19918;-81
2021/09/11 11:09:33;;;;;;;;;;;;;;;-142.75;90.86;76156.94;5046720;28;19914;-80
2021/09/11 11:11:58;;;;;;;;;;;;;;;-142.75;92.49;76176.63;5045153;28;19936;-81
2021/09/11 11:14:23;;;;;;;;;;;;;;;-142.75;92.76;76198.28;5045305;28;19918;-82
2021/09/11 11:16:53;;;;;;;;;;;;;;;-142.75;95.60;76208.09;5045312;28;20318;-81
2021/09/11 11:19:28;;;;;;;;;;;;;;;-142.75;97.53;76225.81;5048972;28;20349;-81
2021/09/11 11:21:57;;;;;;;;;;;;;;;-142.75;99.07;76302.59;5046573;28;19914;-83
2021/09/11 11:24:22;;;;;;;;;;;;;;;-142.75;100.00;76294.72;5058028;28;19918;-82
2021/09/11 11:26:48;;;;;;;;;;;;;;;-142.75;100.00;76288.81;4984927;28;19914;-80
2021/09/11 11:29:15;;;;;;;;;;;;;;;-142.75;100.00;76282.91;5054315;28;19914;-81
2021/09/11 11:31:42;;;;;;;;;;;;;;;-142.75;100.00;76302.59;4988957;28;20401;-80
2021/09/11 11:34:07;;;;;;;;;;;;;;;-142.75;100.00;76290.78;5053056;28;20406;-80
2021/09/11 11:36:32;;;;;;;;;;;;;;;-142.75;100.00;76282.91;4979969;28;19914;-79
2021/09/11 11:39:16;;;;;;;;;;;;;;;-142.75;100.00;76282.91;4981817;28;19913;-81
2021/09/11 11:41:41;;;;;;;;;;;;;;;-142.75;100.00;76278.97;5043473;28;19914;-79
2021/09/11 11:44:06;;;;;;;;;;;;;;;-142.75;100.00;76282.91;5052496;28;19959;-81
2021/09/11 11:46:33;;;;;;;;;;;;;;;-142.75;100.00;76278.97;5046780;28;19951;-81
2021/09/11 11:48:58;;;;;;;;;;;;;;;-142.75;100.00;76278.97;5048111;28;19914;-81
2021/09/11 11:51:23;;;;;;;;;;;;;;;-142.75;100.00;76280.94;4979481;28;19913;-81
2021/09/11 11:53:48;;;;;;;;;;;;;;;-142.75;100.00;76271.09;4979016;28;20367;-82
2021/09/11 11:56:16;;;;;;;;;;;;;;;-142.75;100.00;76253.38;5049251;28;20432;-80
2021/09/11 11:58:41;;;;;;;;;;;;;;;-142.75;100.00;76233.69;5052237;28;20354;-81
2021/09/11 12:01:09;;;;;;;;;;;;;;;-142.75;100.00;76210.06;5051065;28;19997;-77
2021/09/11 12:03:42;;;;;;;;;;;;;;;-142.75;99.83;76188.44;5050373;28;20319;-81
2021/09/11 12:06:08;;;;;;;;;;;;;;;-142.75;98.73;76151.03;4975676;28;19918;-81
2021/09/11 12:08:39;;;;;;;;;;;;;;;-142.75;95.79;76135.28;5046143;28;20393;-80
2021/09/11 12:11:04;;;;;;;;;;;;;;;-142.75;93.45;76119.53;5045617;28;19975;-83
2021/09/11 12:13:31;;;;;;;;;;;;;;;-142.75;93.04;76113.63;5048613;28;20299;-81
2021/09/11 12:15:56;;;;;;;;;;;;;;;-142.75;87.83;76111.66;5049829;28;19913;-84